sensor_id;sensor_type;location;lat;lon;timestamp;P1;durP1;ratioP1;P2;durP2;ratioP2
59169;SDS011;52474;52.236;5.114;2022-11-23T00:00:36;27.33;;;13.10;;
59169;SDS011;52474;52.236;5.114;2022-11-23T00:03:02;27.92;;;12.98;;
59169;SDS011;52474;52.236;5.114;2022-11-23T00:05:28;27.95;;;13.68;;
59169;SDS011;52474;52.236;5.114;2022-11-23T00:07:55;29.27;;;13.10;;
59169;SDS011;52474;52.236;5.114;2022-11-23T00:10:21;27.80;;;13.52;;
59169;SDS011;52474;52.236;5.114;2022-11-23T00:12:47;29.33;;;13.65;;
59169;SDS011;52474;52.236;5.114;2022-11-23T00:15:13;29.60;;;12.65;;
59169;SDS011;52474;52.236;5.114;2022-11-23T00:17:48;26.73;;;14.00;;
59169;SDS011;52474;52.236;5.114;2022-11-23T00:20:15;31.35;;;13.10;;
59169;SDS011;52474;52.236;5.114;2022-11-23T00:22:41;32.67;;;14.75;;
59169;SDS011;52474;52.236;5.114;2022-11-23T00:25:07;25.42;;;12.38;;
59169;SDS011;52474;52.236;5.114;2022-11-23T00:27:33;26.85;;;13.15;;
59169;SDS011;52474;52.236;5.114;2022-11-23T00:29:58;34.58;;;14.10;;
59169;SDS011;52474;52.236;5.114;2022-11-23T00:32:24;33.03;;;14.68;;
59169;SDS011;52474;52.236;5.114;2022-11-23T00:34:51;36.30;;;14.88;;
59169;SDS011;52474;52.236;5.114;2022-11-23T00:37:17;27.70;;;14.63;;
59169;SDS011;52474;52.236;5.114;2022-11-23T00:39:42;33.35;;;15.65;;
59169;SDS011;52474;52.236;5.114;2022-11-23T00:42:08;33.88;;;15.15;;
59169;SDS011;52474;52.236;5.114;2022-11-23T00:44:34;30.67;;;14.20;;
59169;SDS011;52474;52.236;5.114;2022-11-23T00:46:59;37.15;;;15.55;;
59169;SDS011;52474;52.236;5.114;2022-11-23T00:49:25;30.30;;;14.23;;
59169;SDS011;52474;52.236;5.114;2022-11-23T00:51:52;31.17;;;15.00;;
59169;SDS011;52474;52.236;5.114;2022-11-23T00:54:18;30.08;;;14.40;;
59169;SDS011;52474;52.236;5.114;2022-11-23T00:56:44;26.77;;;14.20;;
59169;SDS011;52474;52.236;5.114;2022-11-23T00:59:09;34.03;;;15.02;;
59169;SDS011;52474;52.236;5.114;2022-11-23T01:01:36;32.25;;;14.77;;
59169;SDS011;52474;52.236;5.114;2022-11-23T01:04:03;41.70;;;14.40;;
59169;SDS011;52474;52.236;5.114;2022-11-23T01:06:39;31.38;;;13.23;;
59169;SDS011;52474;52.236;5.114;2022-11-23T01:09:16;33.60;;;14.20;;
59169;SDS011;52474;52.236;5.114;2022-11-23T01:11:42;29.15;;;14.35;;
59169;SDS011;52474;52.236;5.114;2022-11-23T01:14:09;29.67;;;13.98;;
59169;SDS011;52474;52.236;5.114;2022-11-23T01:16:39;34.92;;;15.23;;
59169;SDS011;52474;52.236;5.114;2022-11-23T01:19:06;31.73;;;14.50;;
59169;SDS011;52474;52.236;5.114;2022-11-23T01:21:34;38.75;;;15.25;;
59169;SDS011;52474;52.236;5.114;2022-11-23T01:24:11;34.30;;;14.55;;
59169;SDS011;52474;52.236;5.114;2022-11-23T01:26:50;30.52;;;13.75;;
59169;SDS011;52474;52.236;5.114;2022-11-23T01:29:18;39.03;;;16.23;;
59169;SDS011;52474;52.236;5.114;2022-11-23T01:31:44;34.08;;;15.30;;
59169;SDS011;52474;52.236;5.114;2022-11-23T01:34:12;39.47;;;14.30;;
59169;SDS011;52474;52.236;5.114;2022-11-23T01:36:39;31.70;;;14.35;;
59169;SDS011;52474;52.236;5.114;2022-11-23T01:39:05;30.02;;;14.43;;
59169;SDS011;52474;52.236;5.114;2022-11-23T01:41:32;34.00;;;14.68;;
59169;SDS011;52474;52.236;5.114;2022-11-23T01:44:00;35.13;;;15.40;;
59169;SDS011;52474;52.236;5.114;2022-11-23T01:46:45;33.13;;;13.98;;
59169;SDS011;52474;52.236;5.114;2022-11-23T01:49:11;29.17;;;14.77;;
59169;SDS011;52474;52.236;5.114;2022-11-23T01:51:38;35.67;;;15.43;;
59169;SDS011;52474;52.236;5.114;2022-11-23T01:54:08;36.47;;;15.70;;
59169;SDS011;52474;52.236;5.114;2022-11-23T01:56:39;36.42;;;14.60;;
59169;SDS011;52474;52.236;5.114;2022-11-23T01:59:10;33.00;;;14.77;;
59169;SDS011;52474;52.236;5.114;2022-11-23T02:01:39;32.90;;;14.55;;
59169;SDS011;52474;52.236;5.114;2022-11-23T02:04:06;29.88;;;13.30;;
59169;SDS011;52474;52.236;5.114;2022-11-23T02:06:40;33.17;;;14.73;;
59169;SDS011;52474;52.236;5.114;2022-11-23T02:09:09;32.78;;;15.15;;
59169;SDS011;52474;52.236;5.114;2022-11-23T02:11:35;39.15;;;14.90;;
59169;SDS011;52474;52.236;5.114;2022-11-23T02:14:02;38.15;;;14.93;;
59169;SDS011;52474;52.236;5.114;2022-11-23T02:16:28;40.35;;;15.68;;
59169;SDS011;52474;52.236;5.114;2022-11-23T02:18:54;34.97;;;13.95;;
59169;SDS011;52474;52.236;5.114;2022-11-23T02:21:20;32.83;;;14.55;;
59169;SDS011;52474;52.236;5.114;2022-11-23T02:26:42;35.28;;;15.30;;
59169;SDS011;52474;52.236;5.114;2022-11-23T02:29:19;37.42;;;14.25;;
59169;SDS011;52474;52.236;5.114;2022-11-23T02:31:50;43.17;;;15.55;;
59169;SDS011;52474;52.236;5.114;2022-11-23T02:34:16;39.60;;;15.10;;
59169;SDS011;52474;52.236;5.114;2022-11-23T02:36:46;36.60;;;14.57;;
59169;SDS011;52474;52.236;5.114;2022-11-23T02:39:15;36.30;;;14.02;;
59169;SDS011;52474;52.236;5.114;2022-11-23T02:41:46;37.28;;;14.15;;
59169;SDS011;52474;52.236;5.114;2022-11-23T02:44:17;38.20;;;14.40;;
59169;SDS011;52474;52.236;5.114;2022-11-23T02:46:53;25.45;;;13.00;;
59169;SDS011;52474;52.236;5.114;2022-11-23T02:49:19;31.25;;;12.68;;
59169;SDS011;52474;52.236;5.114;2022-11-23T02:51:45;28.15;;;12.88;;
59169;SDS011;52474;52.236;5.114;2022-11-23T02:54:11;34.35;;;13.95;;
59169;SDS011;52474;52.236;5.114;2022-11-23T02:56:37;32.20;;;12.32;;
59169;SDS011;52474;52.236;5.114;2022-11-23T02:59:02;27.65;;;12.77;;
59169;SDS011;52474;52.236;5.114;2022-11-23T03:01:28;29.35;;;11.93;;
59169;SDS011;52474;52.236;5.114;2022-11-23T03:03:54;33.30;;;13.77;;
59169;SDS011;52474;52.236;5.114;2022-11-23T03:06:20;22.05;;;11.30;;
59169;SDS011;52474;52.236;5.114;2022-11-23T03:08:47;29.35;;;12.55;;
59169;SDS011;52474;52.236;5.114;2022-11-23T03:11:14;29.00;;;11.98;;
59169;SDS011;52474;52.236;5.114;2022-11-23T03:13:40;30.30;;;11.40;;
59169;SDS011;52474;52.236;5.114;2022-11-23T03:16:07;25.48;;;11.93;;
59169;SDS011;52474;52.236;5.114;2022-11-23T03:18:34;23.85;;;11.50;;
59169;SDS011;52474;52.236;5.114;2022-11-23T03:21:02;30.17;;;11.95;;
59169;SDS011;52474;52.236;5.114;2022-11-23T03:23:28;28.08;;;12.27;;
59169;SDS011;52474;52.236;5.114;2022-11-23T03:25:55;26.67;;;12.73;;
59169;SDS011;52474;52.236;5.114;2022-11-23T03:28:23;29.02;;;12.63;;
59169;SDS011;52474;52.236;5.114;2022-11-23T03:30:49;28.45;;;13.35;;
59169;SDS011;52474;52.236;5.114;2022-11-23T03:33:16;27.65;;;12.57;;
59169;SDS011;52474;52.236;5.114;2022-11-23T03:35:42;26.30;;;12.05;;
59169;SDS011;52474;52.236;5.114;2022-11-23T03:38:20;27.17;;;12.70;;
59169;SDS011;52474;52.236;5.114;2022-11-23T03:40:46;33.95;;;13.50;;
59169;SDS011;52474;52.236;5.114;2022-11-23T03:43:20;29.65;;;12.68;;
59169;SDS011;52474;52.236;5.114;2022-11-23T03:45:46;31.58;;;13.30;;
59169;SDS011;52474;52.236;5.114;2022-11-23T03:48:13;31.00;;;12.98;;
59169;SDS011;52474;52.236;5.114;2022-11-23T03:50:39;27.83;;;12.88;;
59169;SDS011;52474;52.236;5.114;2022-11-23T03:53:06;31.35;;;13.60;;
59169;SDS011;52474;52.236;5.114;2022-11-23T03:55:32;29.83;;;13.10;;
59169;SDS011;52474;52.236;5.114;2022-11-23T03:57:59;36.17;;;13.48;;
59169;SDS011;52474;52.236;5.114;2022-11-23T04:00:28;27.52;;;13.05;;
59169;SDS011;52474;52.236;5.114;2022-11-23T04:02:55;28.70;;;13.05;;
59169;SDS011;52474;52.236;5.114;2022-11-23T04:05:47;29.75;;;13.00;;
59169;SDS011;52474;52.236;5.114;2022-11-23T04:08:32;27.23;;;12.18;;
59169;SDS011;52474;52.236;5.114;2022-11-23T04:10:58;25.85;;;13.25;;
59169;SDS011;52474;52.236;5.114;2022-11-23T04:13:44;24.83;;;11.52;;
59169;SDS011;52474;52.236;5.114;2022-11-23T04:16:10;26.08;;;11.98;;
59169;SDS011;52474;52.236;5.114;2022-11-23T04:18:36;24.77;;;12.32;;
59169;SDS011;52474;52.236;5.114;2022-11-23T04:21:03;23.17;;;10.60;;
59169;SDS011;52474;52.236;5.114;2022-11-23T04:23:28;24.10;;;11.27;;
59169;SDS011;52474;52.236;5.114;2022-11-23T04:25:54;24.13;;;10.82;;
59169;SDS011;52474;52.236;5.114;2022-11-23T04:28:21;22.60;;;11.30;;
59169;SDS011;52474;52.236;5.114;2022-11-23T04:30:47;24.65;;;12.27;;
59169;SDS011;52474;52.236;5.114;2022-11-23T04:33:14;23.50;;;10.73;;
59169;SDS011;52474;52.236;5.114;2022-11-23T04:35:39;23.75;;;11.85;;
59169;SDS011;52474;52.236;5.114;2022-11-23T04:38:06;21.20;;;10.68;;
59169;SDS011;52474;52.236;5.114;2022-11-23T04:40:32;24.95;;;11.93;;
59169;SDS011;52474;52.236;5.114;2022-11-23T04:43:01;23.90;;;11.93;;
59169;SDS011;52474;52.236;5.114;2022-11-23T04:45:29;24.15;;;11.30;;
59169;SDS011;52474;52.236;5.114;2022-11-23T04:48:00;18.98;;;10.70;;
59169;SDS011;52474;52.236;5.114;2022-11-23T04:50:26;24.45;;;12.23;;
59169;SDS011;52474;52.236;5.114;2022-11-23T04:52:54;23.05;;;10.65;;
59169;SDS011;52474;52.236;5.114;2022-11-23T04:55:25;23.83;;;10.25;;
59169;SDS011;52474;52.236;5.114;2022-11-23T04:57:55;20.40;;;12.10;;
59169;SDS011;52474;52.236;5.114;2022-11-23T05:00:23;21.27;;;10.38;;
59169;SDS011;52474;52.236;5.114;2022-11-23T05:02:52;22.92;;;11.55;;
59169;SDS011;52474;52.236;5.114;2022-11-23T05:05:23;22.95;;;9.85;;
59169;SDS011;52474;52.236;5.114;2022-11-23T05:07:49;21.13;;;10.52;;
59169;SDS011;52474;52.236;5.114;2022-11-23T05:10:17;18.25;;;9.68;;
59169;SDS011;52474;52.236;5.114;2022-11-23T05:12:44;20.75;;;10.00;;
59169;SDS011;52474;52.236;5.114;2022-11-23T05:15:11;22.83;;;9.80;;
59169;SDS011;52474;52.236;5.114;2022-11-23T05:17:39;19.45;;;10.57;;
59169;SDS011;52474;52.236;5.114;2022-11-23T05:20:11;17.77;;;9.05;;
59169;SDS011;52474;52.236;5.114;2022-11-23T05:22:42;23.05;;;9.00;;
59169;SDS011;52474;52.236;5.114;2022-11-23T05:25:12;17.67;;;8.93;;
59169;SDS011;52474;52.236;5.114;2022-11-23T05:27:38;20.85;;;9.32;;
59169;SDS011;52474;52.236;5.114;2022-11-23T05:30:04;20.52;;;8.63;;
59169;SDS011;52474;52.236;5.114;2022-11-23T05:32:30;20.80;;;9.55;;
59169;SDS011;52474;52.236;5.114;2022-11-23T05:34:58;20.33;;;9.05;;
59169;SDS011;52474;52.236;5.114;2022-11-23T05:37:27;22.25;;;9.32;;
59169;SDS011;52474;52.236;5.114;2022-11-23T05:39:59;18.70;;;8.20;;
59169;SDS011;52474;52.236;5.114;2022-11-23T05:42:25;17.92;;;8.75;;
59169;SDS011;52474;52.236;5.114;2022-11-23T05:44:54;22.23;;;9.75;;
59169;SDS011;52474;52.236;5.114;2022-11-23T05:47:31;20.65;;;8.93;;
59169;SDS011;52474;52.236;5.114;2022-11-23T05:49:57;17.75;;;8.52;;
59169;SDS011;52474;52.236;5.114;2022-11-23T05:52:26;17.85;;;8.93;;
59169;SDS011;52474;52.236;5.114;2022-11-23T05:54:52;17.92;;;8.95;;
59169;SDS011;52474;52.236;5.114;2022-11-23T05:57:19;17.30;;;9.07;;
59169;SDS011;52474;52.236;5.114;2022-11-23T05:59:48;20.13;;;9.50;;
59169;SDS011;52474;52.236;5.114;2022-11-23T06:02:26;19.98;;;9.13;;
59169;SDS011;52474;52.236;5.114;2022-11-23T06:04:58;21.98;;;8.30;;
59169;SDS011;52474;52.236;5.114;2022-11-23T06:07:35;21.42;;;9.02;;
59169;SDS011;52474;52.236;5.114;2022-11-23T06:10:07;18.35;;;9.23;;
59169;SDS011;52474;52.236;5.114;2022-11-23T06:12:37;19.10;;;9.18;;
59169;SDS011;52474;52.236;5.114;2022-11-23T06:15:06;18.40;;;8.75;;
59169;SDS011;52474;52.236;5.114;2022-11-23T06:17:34;27.25;;;7.90;;
59169;SDS011;52474;52.236;5.114;2022-11-23T06:20:12;14.82;;;7.65;;
59169;SDS011;52474;52.236;5.114;2022-11-23T06:22:50;19.63;;;8.47;;
59169;SDS011;52474;52.236;5.114;2022-11-23T06:25:24;18.30;;;8.60;;
59169;SDS011;52474;52.236;5.114;2022-11-23T06:28:29;19.15;;;8.18;;
59169;SDS011;52474;52.236;5.114;2022-11-23T06:31:00;16.05;;;7.97;;
59169;SDS011;52474;52.236;5.114;2022-11-23T06:33:30;19.50;;;8.20;;
59169;SDS011;52474;52.236;5.114;2022-11-23T06:36:03;17.65;;;7.13;;
59169;SDS011;52474;52.236;5.114;2022-11-23T06:38:36;19.13;;;7.72;;
59169;SDS011;52474;52.236;5.114;2022-11-23T06:41:32;20.92;;;7.72;;
59169;SDS011;52474;52.236;5.114;2022-11-23T06:43:58;23.45;;;7.20;;
59169;SDS011;52474;52.236;5.114;2022-11-23T06:46:34;19.48;;;7.85;;
59169;SDS011;52474;52.236;5.114;2022-11-23T06:49:03;19.80;;;7.55;;
59169;SDS011;52474;52.236;5.114;2022-11-23T06:51:29;20.70;;;8.80;;
59169;SDS011;52474;52.236;5.114;2022-11-23T06:53:56;22.52;;;8.32;;
59169;SDS011;52474;52.236;5.114;2022-11-23T06:56:24;20.45;;;7.50;;
59169;SDS011;52474;52.236;5.114;2022-11-23T06:58:50;27.52;;;8.95;;
59169;SDS011;52474;52.236;5.114;2022-11-23T07:01:20;22.90;;;7.55;;
59169;SDS011;52474;52.236;5.114;2022-11-23T07:03:52;20.60;;;8.57;;
59169;SDS011;52474;52.236;5.114;2022-11-23T07:06:24;17.98;;;8.30;;
59169;SDS011;52474;52.236;5.114;2022-11-23T07:08:53;18.45;;;7.90;;
59169;SDS011;52474;52.236;5.114;2022-11-23T07:11:40;21.00;;;7.97;;
59169;SDS011;52474;52.236;5.114;2022-11-23T07:14:05;20.35;;;8.20;;
59169;SDS011;52474;52.236;5.114;2022-11-23T07:16:33;20.15;;;7.40;;
59169;SDS011;52474;52.236;5.114;2022-11-23T07:19:00;16.40;;;6.78;;
59169;SDS011;52474;52.236;5.114;2022-11-23T07:21:26;16.05;;;5.78;;
59169;SDS011;52474;52.236;5.114;2022-11-23T07:23:52;15.00;;;5.80;;
59169;SDS011;52474;52.236;5.114;2022-11-23T07:26:18;16.25;;;5.22;;
59169;SDS011;52474;52.236;5.114;2022-11-23T07:28:43;14.15;;;4.47;;
59169;SDS011;52474;52.236;5.114;2022-11-23T07:31:10;13.82;;;5.00;;
59169;SDS011;52474;52.236;5.114;2022-11-23T07:33:36;17.15;;;3.90;;
59169;SDS011;52474;52.236;5.114;2022-11-23T07:36:02;15.45;;;3.60;;
59169;SDS011;52474;52.236;5.114;2022-11-23T07:38:29;11.00;;;2.63;;
59169;SDS011;52474;52.236;5.114;2022-11-23T07:40:58;10.10;;;2.92;;
59169;SDS011;52474;52.236;5.114;2022-11-23T07:43:44;11.10;;;2.70;;
59169;SDS011;52474;52.236;5.114;2022-11-23T07:46:10;17.48;;;2.58;;
59169;SDS011;52474;52.236;5.114;2022-11-23T07:48:35;12.68;;;2.58;;
59169;SDS011;52474;52.236;5.114;2022-11-23T07:51:01;14.02;;;2.72;;
59169;SDS011;52474;52.236;5.114;2022-11-23T07:53:27;14.18;;;2.95;;
59169;SDS011;52474;52.236;5.114;2022-11-23T07:55:56;9.27;;;2.55;;
59169;SDS011;52474;52.236;5.114;2022-11-23T08:00:48;9.95;;;2.42;;
59169;SDS011;52474;52.236;5.114;2022-11-23T08:03:14;11.85;;;2.45;;
59169;SDS011;52474;52.236;5.114;2022-11-23T08:05:40;14.38;;;2.70;;
59169;SDS011;52474;52.236;5.114;2022-11-23T08:08:06;11.35;;;2.50;;
59169;SDS011;52474;52.236;5.114;2022-11-23T08:10:32;13.18;;;2.20;;
59169;SDS011;52474;52.236;5.114;2022-11-23T08:13:02;14.02;;;2.58;;
59169;SDS011;52474;52.236;5.114;2022-11-23T08:15:30;7.60;;;1.92;;
59169;SDS011;52474;52.236;5.114;2022-11-23T08:17:56;10.20;;;2.20;;
59169;SDS011;52474;52.236;5.114;2022-11-23T08:20:23;10.75;;;2.35;;
59169;SDS011;52474;52.236;5.114;2022-11-23T08:22:49;10.93;;;2.63;;
59169;SDS011;52474;52.236;5.114;2022-11-23T08:25:14;13.25;;;2.40;;
59169;SDS011;52474;52.236;5.114;2022-11-23T08:27:40;11.73;;;2.33;;
59169;SDS011;52474;52.236;5.114;2022-11-23T08:30:07;11.20;;;2.35;;
59169;SDS011;52474;52.236;5.114;2022-11-23T08:32:33;12.75;;;2.17;;
59169;SDS011;52474;52.236;5.114;2022-11-23T08:34:58;15.98;;;3.00;;
59169;SDS011;52474;52.236;5.114;2022-11-23T08:37:24;10.52;;;2.00;;
59169;SDS011;52474;52.236;5.114;2022-11-23T08:39:50;13.68;;;3.00;;
59169;SDS011;52474;52.236;5.114;2022-11-23T08:42:15;10.13;;;2.45;;
59169;SDS011;52474;52.236;5.114;2022-11-23T08:44:41;13.20;;;2.15;;
59169;SDS011;52474;52.236;5.114;2022-11-23T08:47:07;11.13;;;2.67;;
59169;SDS011;52474;52.236;5.114;2022-11-23T08:49:32;22.48;;;3.05;;
59169;SDS011;52474;52.236;5.114;2022-11-23T08:51:58;11.23;;;2.47;;
59169;SDS011;52474;52.236;5.114;2022-11-23T08:54:24;15.02;;;2.30;;
59169;SDS011;52474;52.236;5.114;2022-11-23T08:56:50;14.75;;;2.42;;
59169;SDS011;52474;52.236;5.114;2022-11-23T08:59:16;8.48;;;2.00;;
59169;SDS011;52474;52.236;5.114;2022-11-23T09:01:43;10.35;;;2.42;;
59169;SDS011;52474;52.236;5.114;2022-11-23T09:04:09;9.82;;;2.70;;
59169;SDS011;52474;52.236;5.114;2022-11-23T09:06:35;14.95;;;2.30;;
59169;SDS011;52474;52.236;5.114;2022-11-23T09:09:02;14.20;;;2.80;;
59169;SDS011;52474;52.236;5.114;2022-11-23T09:11:28;16.92;;;2.78;;
59169;SDS011;52474;52.236;5.114;2022-11-23T09:13:53;12.63;;;2.22;;
59169;SDS011;52474;52.236;5.114;2022-11-23T09:16:19;11.55;;;2.40;;
59169;SDS011;52474;52.236;5.114;2022-11-23T09:18:45;9.95;;;2.00;;
59169;SDS011;52474;52.236;5.114;2022-11-23T09:21:13;10.40;;;2.83;;
59169;SDS011;52474;52.236;5.114;2022-11-23T09:23:39;11.38;;;2.40;;
59169;SDS011;52474;52.236;5.114;2022-11-23T09:26:05;9.00;;;1.95;;
59169;SDS011;52474;52.236;5.114;2022-11-23T09:28:31;13.55;;;2.72;;
59169;SDS011;52474;52.236;5.114;2022-11-23T09:30:57;12.57;;;2.58;;
59169;SDS011;52474;52.236;5.114;2022-11-23T09:33:26;14.77;;;2.42;;
59169;SDS011;52474;52.236;5.114;2022-11-23T09:35:56;14.25;;;2.45;;
59169;SDS011;52474;52.236;5.114;2022-11-23T09:38:22;10.93;;;2.63;;
59169;SDS011;52474;52.236;5.114;2022-11-23T09:40:49;10.25;;;2.72;;
59169;SDS011;52474;52.236;5.114;2022-11-23T09:43:56;10.93;;;2.50;;
59169;SDS011;52474;52.236;5.114;2022-11-23T09:49:17;13.50;;;2.42;;
59169;SDS011;52474;52.236;5.114;2022-11-23T09:51:45;8.50;;;2.40;;
59169;SDS011;52474;52.236;5.114;2022-11-23T09:56:58;16.13;;;2.60;;
59169;SDS011;52474;52.236;5.114;2022-11-23T10:01:56;13.55;;;2.13;;
59169;SDS011;52474;52.236;5.114;2022-11-23T10:04:22;9.50;;;1.92;;
59169;SDS011;52474;52.236;5.114;2022-11-23T10:06:56;8.27;;;1.80;;
59169;SDS011;52474;52.236;5.114;2022-11-23T10:15:21;10.23;;;2.10;;
59169;SDS011;52474;52.236;5.114;2022-11-23T10:23:21;6.45;;;2.00;;
59169;SDS011;52474;52.236;5.114;2022-11-23T10:25:56;7.13;;;1.75;;
59169;SDS011;52474;52.236;5.114;2022-11-23T10:28:22;9.50;;;2.35;;
59169;SDS011;52474;52.236;5.114;2022-11-23T10:33:44;13.23;;;2.60;;
59169;SDS011;52474;52.236;5.114;2022-11-23T10:38:42;9.40;;;1.98;;
59169;SDS011;52474;52.236;5.114;2022-11-23T10:41:11;11.05;;;2.00;;
59169;SDS011;52474;52.236;5.114;2022-11-23T10:43:40;8.23;;;2.40;;
59169;SDS011;52474;52.236;5.114;2022-11-23T10:46:42;9.55;;;2.30;;
59169;SDS011;52474;52.236;5.114;2022-11-23T10:49:08;12.95;;;1.90;;
59169;SDS011;52474;52.236;5.114;2022-11-23T10:51:40;5.97;;;1.75;;
59169;SDS011;52474;52.236;5.114;2022-11-23T10:59:55;10.07;;;2.25;;
59169;SDS011;52474;52.236;5.114;2022-11-23T11:02:41;9.30;;;2.63;;
59169;SDS011;52474;52.236;5.114;2022-11-23T11:05:54;10.77;;;2.50;;
59169;SDS011;52474;52.236;5.114;2022-11-23T11:08:07;12.05;;;2.30;;
59169;SDS011;52474;52.236;5.114;2022-11-23T11:10:48;6.47;;;2.08;;
59169;SDS011;52474;52.236;5.114;2022-11-23T11:13:32;10.75;;;2.40;;
59169;SDS011;52474;52.236;5.114;2022-11-23T11:21:46;9.57;;;2.20;;
59169;SDS011;52474;52.236;5.114;2022-11-23T11:24:19;6.57;;;1.92;;
59169;SDS011;52474;52.236;5.114;2022-11-23T11:26:50;9.32;;;2.33;;
59169;SDS011;52474;52.236;5.114;2022-11-23T11:29:28;9.93;;;2.45;;
59169;SDS011;52474;52.236;5.114;2022-11-23T11:32:05;10.70;;;2.28;;
59169;SDS011;52474;52.236;5.114;2022-11-23T11:34:38;12.10;;;2.47;;
59169;SDS011;52474;52.236;5.114;2022-11-23T11:45:27;6.03;;;1.80;;
59169;SDS011;52474;52.236;5.114;2022-11-23T11:48:09;7.80;;;2.47;;
59169;SDS011;52474;52.236;5.114;2022-11-23T11:51:01;7.72;;;1.98;;
59169;SDS011;52474;52.236;5.114;2022-11-23T11:59:04;6.65;;;1.92;;
59169;SDS011;52474;52.236;5.114;2022-11-23T12:01:41;6.07;;;2.13;;
59169;SDS011;52474;52.236;5.114;2022-11-23T12:04:14;9.50;;;1.65;;
59169;SDS011;52474;52.236;5.114;2022-11-23T12:06:47;7.78;;;1.77;;
59169;SDS011;52474;52.236;5.114;2022-11-23T12:09:19;8.65;;;1.58;;
59169;SDS011;52474;52.236;5.114;2022-11-23T12:11:48;8.45;;;1.73;;
59169;SDS011;52474;52.236;5.114;2022-11-23T12:14:14;8.20;;;1.75;;
59169;SDS011;52474;52.236;5.114;2022-11-23T12:19:34;4.72;;;1.40;;
59169;SDS011;52474;52.236;5.114;2022-11-23T12:22:11;10.88;;;1.90;;
59169;SDS011;52474;52.236;5.114;2022-11-23T12:39:08;6.72;;;1.48;;
59169;SDS011;52474;52.236;5.114;2022-11-23T12:46:50;4.72;;;1.48;;
59169;SDS011;52474;52.236;5.114;2022-11-23T12:51:58;6.70;;;1.48;;
59169;SDS011;52474;52.236;5.114;2022-11-23T12:54:44;4.68;;;1.33;;
59169;SDS011;52474;52.236;5.114;2022-11-23T12:57:22;5.38;;;1.40;;
59169;SDS011;52474;52.236;5.114;2022-11-23T13:00:02;5.40;;;1.15;;
59169;SDS011;52474;52.236;5.114;2022-11-23T13:08:02;6.03;;;1.30;;
59169;SDS011;52474;52.236;5.114;2022-11-23T13:22:04;6.40;;;1.50;;
59169;SDS011;52474;52.236;5.114;2022-11-23T13:24:36;3.20;;;1.27;;
59169;SDS011;52474;52.236;5.114;2022-11-23T13:40:40;6.85;;;1.35;;
59169;SDS011;52474;52.236;5.114;2022-11-23T13:43:14;8.98;;;1.85;;
59169;SDS011;52474;52.236;5.114;2022-11-23T13:45:42;7.10;;;1.33;;
59169;SDS011;52474;52.236;5.114;2022-11-23T13:50:35;7.10;;;1.60;;
59169;SDS011;52474;52.236;5.114;2022-11-23T13:53:25;4.13;;;1.10;;
59169;SDS011;52474;52.236;5.114;2022-11-23T14:01:58;7.45;;;1.45;;
59169;SDS011;52474;52.236;5.114;2022-11-23T14:04:46;5.35;;;1.85;;
59169;SDS011;52474;52.236;5.114;2022-11-23T14:09:51;6.40;;;1.55;;
59169;SDS011;52474;52.236;5.114;2022-11-23T14:12:33;7.35;;;1.77;;
59169;SDS011;52474;52.236;5.114;2022-11-23T14:17:50;5.68;;;1.35;;
59169;SDS011;52474;52.236;5.114;2022-11-23T14:37:50;5.50;;;1.45;;
59169;SDS011;52474;52.236;5.114;2022-11-23T14:40:00;2.78;;;1.50;;
59169;SDS011;52474;52.236;5.114;2022-11-23T14:42:49;8.05;;;1.55;;
59169;SDS011;52474;52.236;5.114;2022-11-23T14:45:18;8.90;;;2.03;;
59169;SDS011;52474;52.236;5.114;2022-11-23T14:47:45;4.40;;;1.60;;
59169;SDS011;52474;52.236;5.114;2022-11-23T14:52:47;5.57;;;1.38;;
59169;SDS011;52474;52.236;5.114;2022-11-23T14:55:14;7.65;;;1.60;;
59169;SDS011;52474;52.236;5.114;2022-11-23T14:57:44;8.75;;;1.60;;
59169;SDS011;52474;52.236;5.114;2022-11-23T15:03:11;5.60;;;1.52;;
59169;SDS011;52474;52.236;5.114;2022-11-23T15:05:40;5.30;;;1.40;;
59169;SDS011;52474;52.236;5.114;2022-11-23T15:10:58;5.35;;;1.50;;
59169;SDS011;52474;52.236;5.114;2022-11-23T15:13:31;5.57;;;1.50;;
59169;SDS011;52474;52.236;5.114;2022-11-23T15:16:08;4.35;;;1.48;;
59169;SDS011;52474;52.236;5.114;2022-11-23T15:18:36;6.47;;;1.83;;
59169;SDS011;52474;52.236;5.114;2022-11-23T15:23:40;5.85;;;1.67;;
59169;SDS011;52474;52.236;5.114;2022-11-23T15:26:18;4.78;;;1.50;;
59169;SDS011;52474;52.236;5.114;2022-11-23T15:28:50;4.38;;;1.38;;
59169;SDS011;52474;52.236;5.114;2022-11-23T15:33:46;6.30;;;1.40;;
59169;SDS011;52474;52.236;5.114;2022-11-23T15:36:21;2.00;;;1.35;;
59169;SDS011;52474;52.236;5.114;2022-11-23T15:38:50;6.43;;;1.27;;
59169;SDS011;52474;52.236;5.114;2022-11-23T15:41:17;5.70;;;1.30;;
59169;SDS011;52474;52.236;5.114;2022-11-23T15:43:50;4.97;;;1.80;;
59169;SDS011;52474;52.236;5.114;2022-11-23T15:46:17;2.90;;;1.27;;
59169;SDS011;52474;52.236;5.114;2022-11-23T15:48:46;7.28;;;1.67;;
59169;SDS011;52474;52.236;5.114;2022-11-23T15:51:24;4.80;;;1.33;;
59169;SDS011;52474;52.236;5.114;2022-11-23T15:54:02;3.85;;;1.50;;
59169;SDS011;52474;52.236;5.114;2022-11-23T15:56:35;4.55;;;1.58;;
59169;SDS011;52474;52.236;5.114;2022-11-23T15:59:03;4.20;;;1.60;;
59169;SDS011;52474;52.236;5.114;2022-11-23T16:01:41;4.38;;;1.73;;
59169;SDS011;52474;52.236;5.114;2022-11-23T16:04:27;8.82;;;2.30;;
59169;SDS011;52474;52.236;5.114;2022-11-23T16:06:55;5.22;;;1.85;;
59169;SDS011;52474;52.236;5.114;2022-11-23T16:10:23;3.45;;;1.90;;
59169;SDS011;52474;52.236;5.114;2022-11-23T16:12:32;6.82;;;2.10;;
59169;SDS011;52474;52.236;5.114;2022-11-23T16:20:59;4.25;;;2.40;;
59169;SDS011;52474;52.236;5.114;2022-11-23T16:23:28;6.95;;;2.63;;
59169;SDS011;52474;52.236;5.114;2022-11-23T16:26:15;4.40;;;2.58;;
59169;SDS011;52474;52.236;5.114;2022-11-23T16:28:55;4.03;;;2.80;;
59169;SDS011;52474;52.236;5.114;2022-11-23T16:31:29;7.25;;;3.13;;
59169;SDS011;52474;52.236;5.114;2022-11-23T16:34:00;6.90;;;3.70;;
59169;SDS011;52474;52.236;5.114;2022-11-23T16:36:27;6.82;;;3.28;;
59169;SDS011;52474;52.236;5.114;2022-11-23T16:38:54;7.22;;;3.40;;
59169;SDS011;52474;52.236;5.114;2022-11-23T16:41:20;5.72;;;3.45;;
59169;SDS011;52474;52.236;5.114;2022-11-23T16:43:48;8.32;;;3.72;;
59169;SDS011;52474;52.236;5.114;2022-11-23T16:46:18;8.10;;;4.70;;
59169;SDS011;52474;52.236;5.114;2022-11-23T16:48:44;10.48;;;5.28;;
59169;SDS011;52474;52.236;5.114;2022-11-23T16:51:10;10.98;;;4.57;;
59169;SDS011;52474;52.236;5.114;2022-11-23T16:53:42;8.27;;;5.47;;
59169;SDS011;52474;52.236;5.114;2022-11-23T16:56:09;9.48;;;5.63;;
59169;SDS011;52474;52.236;5.114;2022-11-23T16:58:46;14.05;;;8.20;;
59169;SDS011;52474;52.236;5.114;2022-11-23T17:01:33;13.85;;;6.32;;
59169;SDS011;52474;52.236;5.114;2022-11-23T17:04:00;10.05;;;7.05;;
59169;SDS011;52474;52.236;5.114;2022-11-23T17:06:26;12.30;;;6.40;;
59169;SDS011;52474;52.236;5.114;2022-11-23T17:08:52;11.68;;;6.18;;
59169;SDS011;52474;52.236;5.114;2022-11-23T17:11:22;10.15;;;6.47;;
59169;SDS011;52474;52.236;5.114;2022-11-23T17:13:50;12.35;;;7.18;;
59169;SDS011;52474;52.236;5.114;2022-11-23T17:16:19;12.48;;;7.50;;
59169;SDS011;52474;52.236;5.114;2022-11-23T17:18:46;10.90;;;7.50;;
59169;SDS011;52474;52.236;5.114;2022-11-23T17:21:13;13.52;;;7.88;;
59169;SDS011;52474;52.236;5.114;2022-11-23T17:23:39;13.73;;;8.38;;
59169;SDS011;52474;52.236;5.114;2022-11-23T17:26:25;12.27;;;8.32;;
59169;SDS011;52474;52.236;5.114;2022-11-23T17:28:55;12.85;;;7.55;;
59169;SDS011;52474;52.236;5.114;2022-11-23T17:31:21;12.63;;;8.05;;